Time;durP1;ratioP1;P1;durP2;ratioP2;P2;SDS_P1;SDS_P2;PMS_P1;PMS_P2;Temp;Humidity;BMP_temperature;BMP_pressure;BME280_temperature;BME280_humidity;BME280_pressure;Samples;Min_cycle;Max_cycle;Signal;HPM_P1;HPM_P2
2022/04/18 00:02:24;;;;;;;13.00;7.47;;;;;;;;;;5053751;28;20025;-77
2022/04/18 00:04:49;;;;;;;12.70;7.60;;;;;;;;;;5053762;28;20024;-77
2022/04/18 00:07:15;;;;;;;13.52;8.60;;;;;;;;;;5053418;28;20029;-77
2022/04/18 00:09:40;;;;;;;13.65;7.60;;;;;;;;;;5053551;28;20401;-77
2022/04/18 00:12:07;;;;;;;12.40;7.63;;;;;;;;;;5053803;28;20024;-77
2022/04/18 00:14:32;;;;;;;16.30;7.53;;;;;;;;;;5051869;28;20033;-77
2022/04/18 00:16:58;;;;;;;13.20;7.97;;;;;;;;;;5051990;28;20094;-77
2022/04/18 00:19:23;;;;;;;14.15;7.47;;;;;;;;;;5053417;28;20429;-78
2022/04/18 00:21:49;;;;;;;13.75;7.93;;;;;;;;;;5053413;28;20048;-77
2022/04/18 00:24:17;;;;;;;14.60;8.02;;;;;;;;;;5053429;28;20363;-77
2022/04/18 00:26:42;;;;;;;13.00;8.20;;;;;;;;;;5056062;28;20017;-77
2022/04/18 00:29:08;;;;;;;11.10;7.72;;;;;;;;;;5058909;28;20036;-77
2022/04/18 00:31:33;;;;;;;13.98;7.97;;;;;;;;;;5057909;28;20075;-77
2022/04/18 00:33:58;;;;;;;14.18;8.10;;;;;;;;;;5057906;28;20025;-77
2022/04/18 00:36:24;;;;;;;12.27;7.70;;;;;;;;;;5059971;28;20453;-77
2022/04/18 00:38:49;;;;;;;16.80;8.07;;;;;;;;;;5062233;28;20029;-77
2022/04/18 00:41:15;;;;;;;12.65;7.68;;;;;;;;;;5062665;28;20112;-77
2022/04/18 00:43:43;;;;;;;12.65;7.82;;;;;;;;;;5065905;28;20033;-76
2022/04/18 00:46:09;;;;;;;11.80;7.38;;;;;;;;;;5068678;28;20021;-77
2022/04/18 00:48:35;;;;;;;12.82;7.75;;;;;;;;;;5068580;28;20021;-77
2022/04/18 00:51:01;;;;;;;11.82;7.80;;;;;;;;;;5068664;28;20037;-77
2022/04/18 00:53:26;;;;;;;13.02;8.35;;;;;;;;;;5069041;28;20386;-77
2022/04/18 00:55:52;;;;;;;14.73;8.07;;;;;;;;;;5068179;28;20029;-77
2022/04/18 00:58:18;;;;;;;16.00;7.80;;;;;;;;;;5068370;28;20040;-77
2022/04/18 01:00:43;;;;;;;15.75;7.90;;;;;;;;;;5068852;28;20099;-77
2022/04/18 01:03:08;;;;;;;11.40;7.57;;;;;;;;;;5067539;28;20040;-77
2022/04/18 01:05:34;;;;;;;14.90;8.05;;;;;;;;;;5057372;28;20017;-76
2022/04/18 01:08:00;;;;;;;14.73;8.38;;;;;;;;;;5057225;28;20020;-76
2022/04/18 01:10:25;;;;;;;13.70;7.45;;;;;;;;;;5056850;28;20052;-76
2022/04/18 01:12:50;;;;;;;10.50;7.10;;;;;;;;;;5056526;28;20166;-76
2022/04/18 01:15:15;;;;;;;11.90;7.78;;;;;;;;;;5056875;28;20361;-76
2022/04/18 01:17:41;;;;;;;14.07;7.82;;;;;;;;;;5056501;28;20151;-76
2022/04/18 01:20:06;;;;;;;13.50;8.10;;;;;;;;;;5057073;28;20013;-76
2022/04/18 01:22:33;;;;;;;14.23;7.53;;;;;;;;;;5056540;28;20024;-76
2022/04/18 01:30:27;;;;;;;15.10;8.70;;;;;;;;;;5057231;28;20086;-76
2022/04/18 01:32:52;;;;;;;12.70;7.90;;;;;;;;;;5056552;28;20020;-77
2022/04/18 01:35:17;;;;;;;14.98;8.27;;;;;;;;;;5056323;28;20017;-77
2022/04/18 01:37:42;;;;;;;13.05;8.05;;;;;;;;;;5055011;28;20025;-77
2022/04/18 01:40:08;;;;;;;13.20;8.13;;;;;;;;;;5056191;28;20389;-77
2022/04/18 01:42:33;;;;;;;11.93;7.88;;;;;;;;;;5056096;28;20036;-77
2022/04/18 01:45:02;;;;;;;14.27;8.52;;;;;;;;;;5056059;28;20035;-77
2022/04/18 01:47:27;;;;;;;14.20;8.57;;;;;;;;;;5056104;28;20040;-77
2022/04/18 01:49:53;;;;;;;13.60;8.25;;;;;;;;;;5056063;28;20422;-77
2022/04/18 01:52:18;;;;;;;10.70;7.35;;;;;;;;;;5054733;28;20121;-77
2022/04/18 01:54:44;;;;;;;14.50;8.20;;;;;;;;;;5055184;28;20100;-77
2022/04/18 01:57:09;;;;;;;11.05;7.25;;;;;;;;;;5055571;28;20028;-77
2022/04/18 01:59:34;;;;;;;13.38;8.07;;;;;;;;;;5054609;28;20025;-77
2022/04/18 02:01:59;;;;;;;11.90;7.60;;;;;;;;;;5055749;28;20035;-77
2022/04/18 02:04:24;;;;;;;18.70;7.88;;;;;;;;;;5055722;28;20258;-77
2022/04/18 02:06:50;;;;;;;15.18;8.27;;;;;;;;;;5054277;28;20032;-77
2022/04/18 02:09:15;;;;;;;14.18;7.90;;;;;;;;;;5055617;28;20136;-77
2022/04/18 02:11:40;;;;;;;12.73;8.63;;;;;;;;;;5055784;28;20021;-77
2022/04/18 02:14:06;;;;;;;13.85;8.23;;;;;;;;;;5054030;28;20029;-77
2022/04/18 02:16:31;;;;;;;13.55;8.00;;;;;;;;;;5055269;28;20040;-77
2022/04/18 02:18:56;;;;;;;12.52;8.07;;;;;;;;;;5055398;28;20078;-77
2022/04/18 02:21:21;;;;;;;12.45;8.27;;;;;;;;;;5055572;28;20032;-77
2022/04/18 02:23:47;;;;;;;13.07;7.97;;;;;;;;;;5055355;28;20016;-77
2022/04/18 02:26:12;;;;;;;14.02;7.97;;;;;;;;;;5055133;28;20032;-77
2022/04/18 02:28:37;;;;;;;12.95;7.97;;;;;;;;;;5055256;28;20474;-77
2022/04/18 02:31:04;;;;;;;12.85;7.60;;;;;;;;;;5055437;28;20497;-77
2022/04/18 02:33:29;;;;;;;12.65;7.60;;;;;;;;;;5054105;28;20021;-76
2022/04/18 02:35:54;;;;;;;12.85;8.02;;;;;;;;;;5055931;28;20360;-78
2022/04/18 02:38:20;;;;;;;14.07;7.60;;;;;;;;;;5056262;28;20040;-77
2022/04/18 02:40:45;;;;;;;16.88;8.43;;;;;;;;;;5055759;28;20059;-77
2022/04/18 02:43:11;;;;;;;15.13;7.93;;;;;;;;;;5056523;28;20044;-77
2022/04/18 02:45:37;;;;;;;13.40;7.65;;;;;;;;;;5056393;28;20040;-77
2022/04/18 02:48:02;;;;;;;12.38;8.20;;;;;;;;;;5056461;28;20099;-77
2022/04/18 02:50:28;;;;;;;11.77;7.80;;;;;;;;;;5056899;28;20025;-77
2022/04/18 02:52:54;;;;;;;14.40;8.13;;;;;;;;;;5056388;28;20100;-77
2022/04/18 02:55:19;;;;;;;13.38;7.35;;;;;;;;;;5054606;28;20079;-76
2022/04/18 02:57:45;;;;;;;14.68;8.50;;;;;;;;;;5054840;28;20037;-77
2022/04/18 03:00:11;;;;;;;18.58;10.30;;;;;;;;;;5054699;28;20401;-77
2022/04/18 03:02:38;;;;;;;17.30;8.88;;;;;;;;;;5055550;28;20386;-77
2022/04/18 03:05:04;;;;;;;16.58;8.55;;;;;;;;;;5054131;28;20035;-77
2022/04/18 03:07:30;;;;;;;15.20;8.23;;;;;;;;;;5054325;28;20481;-77
2022/04/18 03:09:55;;;;;;;13.60;8.40;;;;;;;;;;5054146;28;20070;-77
2022/04/18 03:12:21;;;;;;;12.98;8.15;;;;;;;;;;5053785;28;20028;-77
2022/04/18 03:14:47;;;;;;;12.00;7.38;;;;;;;;;;5054471;28;20032;-77
2022/04/18 03:17:12;;;;;;;12.00;7.45;;;;;;;;;;5054282;28;20470;-77
2022/04/18 03:19:37;;;;;;;14.40;7.47;;;;;;;;;;5054298;28;20533;-77
2022/04/18 03:22:03;;;;;;;12.60;7.15;;;;;;;;;;5054620;28;20056;-77
2022/04/18 03:24:28;;;;;;;11.77;7.15;;;;;;;;;;5055209;28;20064;-77
2022/04/18 03:26:53;;;;;;;12.20;7.35;;;;;;;;;;5054469;28;20428;-77
2022/04/18 03:29:18;;;;;;;9.75;6.93;;;;;;;;;;5054083;28;20016;-77
2022/04/18 03:31:44;;;;;;;10.95;7.00;;;;;;;;;;5054193;28;20469;-77
2022/04/18 03:34:09;;;;;;;11.68;7.13;;;;;;;;;;5054141;28;20086;-77
2022/04/18 03:42:03;;;;;;;10.57;7.07;;;;;;;;;;5054193;28;20040;-77
2022/04/18 03:44:28;;;;;;;12.63;7.38;;;;;;;;;;5054115;28;20021;-77
2022/04/18 03:46:53;;;;;;;12.05;7.40;;;;;;;;;;5054848;28;20025;-77
2022/04/18 03:49:19;;;;;;;12.95;7.03;;;;;;;;;;5054096;28;20028;-77
2022/04/18 03:51:44;;;;;;;11.98;6.53;;;;;;;;;;5052563;28;20028;-77
2022/04/18 03:54:09;;;;;;;12.35;7.13;;;;;;;;;;5053586;28;20032;-77
2022/04/18 03:56:35;;;;;;;13.55;7.38;;;;;;;;;;5053613;28;20032;-77
2022/04/18 03:59:00;;;;;;;11.70;6.95;;;;;;;;;;5054627;28;20036;-77
2022/04/18 04:01:25;;;;;;;11.02;6.95;;;;;;;;;;5053989;28;20431;-77
2022/04/18 04:03:51;;;;;;;14.30;7.57;;;;;;;;;;5052607;28;20032;-77
2022/04/18 04:06:16;;;;;;;12.07;7.45;;;;;;;;;;5054157;28;20104;-77
2022/04/18 04:08:41;;;;;;;12.77;7.35;;;;;;;;;;5053747;28;20029;-77
2022/04/18 04:11:06;;;;;;;17.08;6.55;;;;;;;;;;5053857;28;20020;-77
2022/04/18 04:13:32;;;;;;;12.15;6.75;;;;;;;;;;5054439;28;20032;-78
2022/04/18 04:15:57;;;;;;;11.63;7.07;;;;;;;;;;5054407;28;20025;-77
2022/04/18 04:18:23;;;;;;;11.27;7.13;;;;;;;;;;5053032;28;20466;-77
2022/04/18 04:20:48;;;;;;;10.80;7.32;;;;;;;;;;5053212;28;20025;-77
2022/04/18 04:23:14;;;;;;;11.05;7.25;;;;;;;;;;5053490;28;20021;-76
2022/04/18 04:25:39;;;;;;;12.55;7.22;;;;;;;;;;5053405;28;20020;-76
2022/04/18 04:28:04;;;;;;;14.25;7.03;;;;;;;;;;5053141;28;20051;-76
2022/04/18 04:30:29;;;;;;;12.02;6.55;;;;;;;;;;5053171;28;20028;-75
2022/04/18 04:32:55;;;;;;;10.65;6.65;;;;;;;;;;5053287;28;20071;-77
2022/04/18 04:35:20;;;;;;;11.05;6.53;;;;;;;;;;5053646;28;20025;-77
2022/04/18 04:37:45;;;;;;;10.25;6.40;;;;;;;;;;5053227;28;20032;-77
2022/04/18 04:40:11;;;;;;;12.15;6.78;;;;;;;;;;5052261;28;20028;-77
2022/04/18 04:42:38;;;;;;;10.57;6.38;;;;;;;;;;5053067;28;20029;-77
2022/04/18 04:45:03;;;;;;;11.05;6.28;;;;;;;;;;5053078;28;20060;-77
2022/04/18 04:47:29;;;;;;;11.50;6.28;;;;;;;;;;5052854;28;20418;-76
2022/04/18 04:49:54;;;;;;;8.13;5.53;;;;;;;;;;5053142;28;20017;-76
2022/04/18 04:52:20;;;;;;;10.73;6.43;;;;;;;;;;5053028;28;20066;-77
2022/04/18 04:54:46;;;;;;;10.65;6.05;;;;;;;;;;5052978;28;20103;-77
2022/04/18 04:57:11;;;;;;;11.52;6.40;;;;;;;;;;5053587;28;20405;-76
2022/04/18 04:59:36;;;;;;;9.93;5.57;;;;;;;;;;5053325;28;20047;-77
2022/04/18 05:02:01;;;;;;;8.18;4.85;;;;;;;;;;5052794;28;20025;-77
2022/04/18 05:04:27;;;;;;;8.00;5.13;;;;;;;;;;5052878;28;20119;-77
2022/04/18 05:06:52;;;;;;;7.18;4.85;;;;;;;;;;5053140;28;20017;-76
2022/04/18 05:09:18;;;;;;;8.38;4.90;;;;;;;;;;5053904;28;20402;-78
2022/04/18 05:11:44;;;;;;;7.15;4.60;;;;;;;;;;5052515;28;20367;-77
2022/04/18 05:14:10;;;;;;;11.02;5.28;;;;;;;;;;5052733;28;20052;-77
2022/04/18 05:16:35;;;;;;;9.32;5.10;;;;;;;;;;5051479;28;20453;-76
2022/04/18 05:19:00;;;;;;;10.70;5.43;;;;;;;;;;5053436;28;20028;-77
2022/04/18 05:21:25;;;;;;;8.90;5.30;;;;;;;;;;5052964;28;20028;-76
2022/04/18 05:23:51;;;;;;;9.90;5.40;;;;;;;;;;5052753;28;20021;-77
2022/04/18 05:26:16;;;;;;;7.45;5.47;;;;;;;;;;5052778;28;20489;-76
2022/04/18 05:28:42;;;;;;;7.35;4.78;;;;;;;;;;5053084;28;20095;-77
2022/04/18 05:31:07;;;;;;;8.88;5.20;;;;;;;;;;5057393;28;20070;-79
2022/04/18 05:33:32;;;;;;;10.68;5.82;;;;;;;;;;5056680;28;20017;-76
2022/04/18 05:35:58;;;;;;;7.70;4.97;;;;;;;;;;5056481;28;20021;-78
2022/04/18 05:38:23;;;;;;;11.10;4.70;;;;;;;;;;5055296;28;20079;-76
2022/04/18 05:40:48;;;;;;;8.45;5.10;;;;;;;;;;5056814;28;20398;-76
2022/04/18 05:43:15;;;;;;;7.55;4.70;;;;;;;;;;5055153;28;20405;-77
2022/04/18 05:45:40;;;;;;;7.55;4.40;;;;;;;;;;5056466;28;20016;-76
2022/04/18 05:48:06;;;;;;;10.20;4.55;;;;;;;;;;5056148;28;20021;-77
2022/04/18 05:50:31;;;;;;;8.70;5.68;;;;;;;;;;5057504;28;20540;-76
2022/04/18 05:52:57;;;;;;;9.38;5.40;;;;;;;;;;5056730;28;20029;-76
2022/04/18 05:55:22;;;;;;;9.73;5.70;;;;;;;;;;5054752;28;20029;-76
2022/04/18 05:57:49;;;;;;;8.57;5.38;;;;;;;;;;5054769;28;20070;-77
2022/04/18 06:00:16;;;;;;;7.80;5.32;;;;;;;;;;5055466;28;20032;-77
2022/04/18 06:02:41;;;;;;;9.43;5.80;;;;;;;;;;5054722;28;20032;-77
2022/04/18 06:05:06;;;;;;;9.47;5.70;;;;;;;;;;5056550;28;20028;-77
2022/04/18 06:07:32;;;;;;;8.90;5.80;;;;;;;;;;5054841;28;20254;-78
2022/04/18 06:09:57;;;;;;;7.63;5.20;;;;;;;;;;5057486;28;20090;-78
2022/04/18 06:12:23;;;;;;;7.60;5.05;;;;;;;;;;5058036;28;20027;-78
2022/04/18 06:14:48;;;;;;;8.55;5.85;;;;;;;;;;5056051;28;20091;-79
2022/04/18 06:17:14;;;;;;;10.27;5.70;;;;;;;;;;5056128;28;20060;-78
2022/04/18 06:19:41;;;;;;;8.60;5.65;;;;;;;;;;5061783;28;20292;-77
2022/04/18 06:22:06;;;;;;;8.85;5.82;;;;;;;;;;5058659;28;20029;-76
2022/04/18 06:24:32;;;;;;;9.50;5.95;;;;;;;;;;5060209;28;20078;-77
2022/04/18 06:26:57;;;;;;;10.45;5.90;;;;;;;;;;5057106;28;20021;-78
2022/04/18 06:29:22;;;;;;;9.82;6.78;;;;;;;;;;5057600;28;20495;-77
2022/04/18 06:31:49;;;;;;;11.15;5.93;;;;;;;;;;5057571;28;20029;-77
2022/04/18 06:34:15;;;;;;;9.25;6.35;;;;;;;;;;5056389;28;20386;-77
2022/04/18 06:36:41;;;;;;;11.95;6.22;;;;;;;;;;5055682;28;20029;-76
2022/04/18 06:39:06;;;;;;;8.03;5.90;;;;;;;;;;5055578;28;20052;-78
2022/04/18 06:41:31;;;;;;;8.60;5.73;;;;;;;;;;5055936;28;20270;-78
2022/04/18 06:43:56;;;;;;;10.77;6.15;;;;;;;;;;5055105;28;20335;-77
2022/04/18 06:46:21;;;;;;;9.25;5.50;;;;;;;;;;5056086;28;20013;-78
2022/04/18 06:48:47;;;;;;;15.67;5.63;;;;;;;;;;5054968;28;20033;-78
2022/04/18 06:51:12;;;;;;;8.93;6.00;;;;;;;;;;5056460;28;20288;-77
2022/04/18 06:53:37;;;;;;;10.95;6.28;;;;;;;;;;5056238;28;20258;-78
2022/04/18 06:58:46;;;;;;;7.70;5.93;;;;;;;;;;5055250;28;20035;-77
2022/04/18 07:01:11;;;;;;;7.78;6.00;;;;;;;;;;5055343;28;20029;-77
2022/04/18 07:03:37;;;;;;;7.88;5.97;;;;;;;;;;5056436;28;20025;-78
2022/04/18 07:06:02;;;;;;;8.90;6.40;;;;;;;;;;5054690;28;20020;-76
2022/04/18 07:08:27;;;;;;;8.85;6.28;;;;;;;;;;5054456;28;20453;-77
2022/04/18 07:10:53;;;;;;;8.67;6.03;;;;;;;;;;5055250;28;20021;-78
2022/04/18 07:13:18;;;;;;;8.63;6.10;;;;;;;;;;5055151;28;20266;-78
2022/04/18 07:15:43;;;;;;;8.70;6.13;;;;;;;;;;5053431;28;20274;-78
2022/04/18 07:18:09;;;;;;;9.13;5.85;;;;;;;;;;5054795;28;20024;-76
2022/04/18 07:20:34;;;;;;;9.37;5.93;;;;;;;;;;5054316;28;20024;-77
2022/04/18 07:23:00;;;;;;;7.93;5.82;;;;;;;;;;5052750;28;20300;-77
2022/04/18 07:25:25;;;;;;;10.13;5.88;;;;;;;;;;5054234;28;20021;-77
2022/04/18 07:27:50;;;;;;;13.15;6.57;;;;;;;;;;5055705;28;20100;-77
2022/04/18 07:30:16;;;;;;;10.40;5.70;;;;;;;;;;5053887;28;20032;-77
2022/04/18 07:32:42;;;;;;;11.95;5.43;;;;;;;;;;5056256;28;20024;-78
2022/04/18 07:35:09;;;;;;;10.20;5.63;;;;;;;;;;5056236;28;20057;-78
2022/04/18 07:37:35;;;;;;;9.15;5.68;;;;;;;;;;5054417;28;20127;-77
2022/04/18 07:40:00;;;;;;;9.32;5.47;;;;;;;;;;5054299;28;20494;-78
2022/04/18 07:42:25;;;;;;;7.60;5.40;;;;;;;;;;5055769;28;20055;-78
2022/04/18 07:44:50;;;;;;;8.17;5.43;;;;;;;;;;5055193;28;20029;-78
2022/04/18 07:47:15;;;;;;;8.73;5.27;;;;;;;;;;5056024;28;20269;-78
2022/04/18 07:49:41;;;;;;;9.55;6.05;;;;;;;;;;5056473;28;20266;-78
2022/04/18 07:52:08;;;;;;;10.23;5.90;;;;;;;;;;5056728;28;20028;-78
2022/04/18 07:54:34;;;;;;;8.77;5.45;;;;;;;;;;5054669;28;20261;-78
2022/04/18 07:56:59;;;;;;;8.75;5.85;;;;;;;;;;5056464;28;20043;-77
2022/04/18 07:59:24;;;;;;;8.47;5.70;;;;;;;;;;5056403;28;20052;-79
2022/04/18 08:01:50;;;;;;;11.13;5.77;;;;;;;;;;5055274;28;20254;-77
2022/04/18 08:04:15;;;;;;;7.67;5.40;;;;;;;;;;5054875;28;20258;-77
2022/04/18 08:06:40;;;;;;;8.53;5.73;;;;;;;;;;5054139;28;20254;-76
2022/04/18 08:09:05;;;;;;;9.25;5.63;;;;;;;;;;5053409;28;20246;-77
2022/04/18 08:11:31;;;;;;;8.47;5.57;;;;;;;;;;5053903;28;20068;-78
2022/04/18 08:13:56;;;;;;;9.40;5.65;;;;;;;;;;5054921;28;20285;-78
2022/04/18 08:16:22;;;;;;;8.50;5.80;;;;;;;;;;5055249;28;20079;-78
2022/04/18 08:18:47;;;;;;;12.88;5.90;;;;;;;;;;5053846;28;20021;-78
2022/04/18 08:21:17;;;;;;;7.63;4.80;;;;;;;;;;5055373;28;20506;-78
2022/04/18 08:23:46;;;;;;;8.85;5.70;;;;;;;;;;5055962;28;20029;-77
2022/04/18 08:26:11;;;;;;;9.90;5.25;;;;;;;;;;5055380;28;20021;-77
2022/04/18 08:28:38;;;;;;;10.57;6.10;;;;;;;;;;5055115;28;20027;-78
2022/04/18 08:31:03;;;;;;;9.50;5.88;;;;;;;;;;5054801;28;20025;-78
2022/04/18 08:33:29;;;;;;;8.85;5.75;;;;;;;;;;5055540;28;20093;-78
2022/04/18 08:35:58;;;;;;;8.30;5.20;;;;;;;;;;5054855;28;20040;-78
2022/04/18 08:38:25;;;;;;;11.75;5.57;;;;;;;;;;5055092;28;20111;-78
2022/04/18 08:40:51;;;;;;;8.10;5.00;;;;;;;;;;5053429;28;20444;-79
2022/04/18 08:43:17;;;;;;;8.93;4.88;;;;;;;;;;5054763;28;20497;-78
2022/04/18 08:45:42;;;;;;;9.55;5.47;;;;;;;;;;5054635;28;20029;-77
2022/04/18 08:53:36;;;;;;;6.80;3.60;;;;;;;;;;5054684;28;20036;-78
2022/04/18 08:56:01;;;;;;;6.55;3.67;;;;;;;;;;5055044;28;20394;-78
2022/04/18 08:58:27;;;;;;;6.93;3.55;;;;;;;;;;5054675;28;20497;-77
2022/04/18 09:00:54;;;;;;;5.88;4.00;;;;;;;;;;5054275;28;20029;-78
2022/04/18 09:03:20;;;;;;;8.15;4.10;;;;;;;;;;5053692;28;20502;-77
2022/04/18 09:05:46;;;;;;;6.68;3.58;;;;;;;;;;5058373;28;20029;-78
2022/04/18 09:08:11;;;;;;;13.95;4.00;;;;;;;;;;5058755;28;20025;-79
2022/04/18 09:10:38;;;;;;;5.28;3.42;;;;;;;;;;5060187;28;20028;-79
2022/04/18 09:13:13;;;;;;;4.93;3.22;;;;;;;;;;5058434;28;20036;-78
2022/04/18 09:15:41;;;;;;;6.18;3.00;;;;;;;;;;5060136;28;20124;-78
2022/04/18 09:18:08;;;;;;;4.82;2.75;;;;;;;;;;5059378;28;20486;-78
2022/04/18 09:20:41;;;;;;;6.63;3.35;;;;;;;;;;5059271;28;20052;-80
2022/04/18 09:23:18;;;;;;;5.63;3.30;;;;;;;;;;5058380;28;20398;-78
2022/04/18 09:25:44;;;;;;;8.48;3.17;;;;;;;;;;5059459;28;20434;-78
2022/04/18 09:28:11;;;;;;;5.18;3.03;;;;;;;;;;5059478;28;20028;-78
2022/04/18 09:30:37;;;;;;;5.63;3.20;;;;;;;;;;5057333;28;20025;-78
2022/04/18 09:33:06;;;;;;;6.35;3.55;;;;;;;;;;5056333;28;20025;-77
2022/04/18 09:35:33;;;;;;;6.38;3.05;;;;;;;;;;5057913;28;20021;-77
2022/04/18 09:38:05;;;;;;;4.70;2.90;;;;;;;;;;5058015;28;20390;-79
2022/04/18 09:40:32;;;;;;;4.57;2.63;;;;;;;;;;5055915;28;20048;-78
2022/04/18 09:42:57;;;;;;;6.15;2.42;;;;;;;;;;5059372;28;20028;-78
2022/04/18 09:45:23;;;;;;;6.88;2.65;;;;;;;;;;5059219;28;20017;-78
2022/04/18 09:47:55;;;;;;;5.35;2.50;;;;;;;;;;5059266;28;20025;-79
2022/04/18 09:53:15;;;;;;;2.65;1.80;;;;;;;;;;5057887;28;20405;-80
2022/04/18 09:55:44;;;;;;;3.47;2.03;;;;;;;;;;5057007;28;20022;-78
2022/04/18 09:58:11;;;;;;;3.30;2.33;;;;;;;;;;5057258;28;20054;-80
2022/04/18 10:00:36;;;;;;;3.83;2.58;;;;;;;;;;5058086;28;20023;-78
2022/04/18 10:03:02;;;;;;;5.93;2.55;;;;;;;;;;5057163;28;20103;-78
2022/04/18 10:05:28;;;;;;;4.53;2.40;;;;;;;;;;5056903;28;20020;-80
2022/04/18 10:07:54;;;;;;;3.15;2.17;;;;;;;;;;5056129;28;20021;-75
2022/04/18 10:10:20;;;;;;;3.85;2.20;;;;;;;;;;5055855;28;20032;-75
2022/04/18 10:12:46;;;;;;;3.35;2.17;;;;;;;;;;5054533;28;20115;-74
2022/04/18 10:15:11;;;;;;;4.72;2.40;;;;;;;;;;5054265;28;20029;-75
2022/04/18 10:17:38;;;;;;;4.70;2.78;;;;;;;;;;5056720;28;20036;-78
2022/04/18 10:20:33;;;;;;;4.60;2.33;;;;;;;;;;5057213;28;20025;-78
2022/04/18 10:23:14;;;;;;;3.50;2.15;;;;;;;;;;5055872;28;20021;-78
2022/04/18 10:26:20;;;;;;;3.10;1.85;;;;;;;;;;5056521;28;20028;-78
2022/04/18 10:28:50;;;;;;;1.80;1.20;;;;;;;;;;5056987;28;20024;-78
2022/04/18 10:31:37;;;;;;;2.58;1.52;;;;;;;;;;5056906;28;20028;-79
2022/04/18 10:34:02;;;;;;;2.55;1.63;;;;;;;;;;5056345;28;20017;-77
2022/04/18 10:36:31;;;;;;;2.85;1.60;;;;;;;;;;5056157;28;20024;-77
2022/04/18 10:39:00;;;;;;;2.60;1.50;;;;;;;;;;5056416;28;20159;-77
2022/04/18 10:41:45;;;;;;;2.65;1.40;;;;;;;;;;5056261;28;20032;-79
2022/04/18 10:44:12;;;;;;;3.30;1.80;;;;;;;;;;5056644;28;20090;-78
2022/04/18 10:46:42;;;;;;;2.05;1.45;;;;;;;;;;5057022;28;20024;-78
2022/04/18 10:49:15;;;;;;;1.70;1.30;;;;;;;;;;5057041;28;20043;-79
2022/04/18 10:51:41;;;;;;;2.15;1.25;;;;;;;;;;5058158;28;20027;-79
2022/04/18 10:54:13;;;;;;;2.00;1.10;;;;;;;;;;5057416;28;20501;-78
2022/04/18 10:56:55;;;;;;;1.77;1.20;;;;;;;;;;5055917;28;20029;-79
2022/04/18 10:59:25;;;;;;;1.88;1.40;;;;;;;;;;5055962;28;20025;-77
2022/04/18 11:01:55;;;;;;;1.30;1.10;;;;;;;;;;5056437;28;20021;-79
2022/04/18 11:04:48;;;;;;;2.53;1.50;;;;;;;;;;5056162;28;20025;-78
2022/04/18 11:07:13;;;;;;;2.70;1.40;;;;;;;;;;5053235;28;20029;-79
2022/04/18 11:09:46;;;;;;;4.80;2.28;;;;;;;;;;5056114;28;20028;-80
2022/04/18 11:12:20;;;;;;;3.17;1.17;;;;;;;;;;5056136;28;20084;-79
2022/04/18 11:15:03;;;;;;;1.67;1.25;;;;;;;;;;5054245;28;20032;-78
2022/04/18 11:17:33;;;;;;;1.50;1.00;;;;;;;;;;5056065;28;20052;-78
2022/04/18 11:20:24;;;;;;;1.40;1.02;;;;;;;;;;5056292;28;20482;-78
2022/04/18 11:23:21;;;;;;;2.63;1.35;;;;;;;;;;5056218;28;20446;-78
2022/04/18 11:26:00;;;;;;;2.00;1.15;;;;;;;;;;5055612;28;20021;-77
2022/04/18 11:28:41;;;;;;;1.73;1.30;;;;;;;;;;5055682;28;20067;-78
2022/04/18 11:31:08;;;;;;;3.13;1.35;;;;;;;;;;5055303;28;20104;-78
2022/04/18 11:33:41;;;;;;;3.10;1.30;;;;;;;;;;5054584;28;20036;-79
2022/04/18 11:36:07;;;;;;;1.55;1.20;;;;;;;;;;5054792;28;20025;-77
2022/04/18 11:38:32;;;;;;;1.38;0.95;;;;;;;;;;5054595;28;20036;-79
2022/04/18 11:40:57;;;;;;;1.20;0.83;;;;;;;;;;5054877;28;20078;-78
2022/04/18 11:43:22;;;;;;;1.55;1.00;;;;;;;;;;5055615;28;20334;-77
2022/04/18 11:45:48;;;;;;;1.85;1.00;;;;;;;;;;5055373;28;20017;-77
2022/04/18 11:48:13;;;;;;;2.55;1.40;;;;;;;;;;5053684;28;20386;-77
2022/04/18 11:50:43;;;;;;;1.75;1.20;;;;;;;;;;5053758;28;20039;-78
2022/04/18 11:53:09;;;;;;;2.65;1.67;;;;;;;;;;5054158;28;20036;-77
2022/04/18 11:55:46;;;;;;;1.67;1.30;;;;;;;;;;5053882;28;20029;-77
2022/04/18 11:58:17;;;;;;;1.38;1.10;;;;;;;;;;5052609;28;20107;-77
2022/04/18 12:09:00;;;;;;;2.95;1.10;;;;;;;;;;5054111;28;20077;-78
2022/04/18 12:11:25;;;;;;;1.27;1.00;;;;;;;;;;5053286;28;20116;-75
2022/04/18 12:13:52;;;;;;;2.15;1.35;;;;;;;;;;5054910;28;20033;-79
2022/04/18 12:16:18;;;;;;;3.63;1.20;;;;;;;;;;5057836;28;20039;-78
2022/04/18 12:18:44;;;;;;;3.15;1.30;;;;;;;;;;5057657;28;20500;-78
2022/04/18 12:21:13;;;;;;;3.05;1.10;;;;;;;;;;5055573;28;20029;-77
2022/04/18 12:23:38;;;;;;;2.45;1.40;;;;;;;;;;5053775;28;20020;-77
2022/04/18 12:26:10;;;;;;;0.63;0.63;;;;;;;;;;5055720;28;20021;-77
2022/04/18 12:28:36;;;;;;;1.10;1.00;;;;;;;;;;5057207;28;20568;-77
2022/04/18 12:31:08;;;;;;;1.30;1.00;;;;;;;;;;5056355;28;20033;-79
2022/04/18 12:33:33;;;;;;;1.63;0.88;;;;;;;;;;5055741;28;20045;-78
2022/04/18 12:36:00;;;;;;;1.90;1.20;;;;;;;;;;5054429;28;20110;-81
2022/04/18 12:38:36;;;;;;;2.90;1.20;;;;;;;;;;5054066;28;20277;-78
2022/04/18 12:41:05;;;;;;;2.15;1.23;;;;;;;;;;5054393;28;20028;-80
2022/04/18 12:43:37;;;;;;;4.32;2.35;;;;;;;;;;5055516;28;20108;-81
2022/04/18 12:46:08;;;;;;;1.67;1.20;;;;;;;;;;5053923;28;20025;-80
2022/04/18 12:48:35;;;;;;;3.03;1.42;;;;;;;;;;5053366;28;20040;-79
2022/04/18 12:51:02;;;;;;;2.70;1.45;;;;;;;;;;5054992;28;20037;-78
2022/04/18 12:53:55;;;;;;;2.45;1.50;;;;;;;;;;5054948;28;20029;-79
2022/04/18 12:56:23;;;;;;;3.63;1.40;;;;;;;;;;5054222;28;20548;-77
2022/04/18 12:58:51;;;;;;;1.48;0.85;;;;;;;;;;5054223;28;20040;-77
2022/04/18 13:01:32;;;;;;;3.35;1.52;;;;;;;;;;5054373;28;20454;-78
2022/04/18 13:03:58;;;;;;;2.20;1.30;;;;;;;;;;5053790;28;20029;-79
2022/04/18 13:06:34;;;;;;;1.10;1.00;;;;;;;;;;5053862;28;20021;-78
2022/04/18 13:09:07;;;;;;;3.28;1.50;;;;;;;;;;5052710;28;20021;-79
2022/04/18 13:11:41;;;;;;;1.88;1.40;;;;;;;;;;5053960;28;20021;-77
2022/04/18 13:14:07;;;;;;;1.88;1.13;;;;;;;;;;5053233;28;20029;-78
2022/04/18 13:16:32;;;;;;;2.33;1.33;;;;;;;;;;5054147;28;20054;-78
2022/04/18 13:19:04;;;;;;;1.63;1.17;;;;;;;;;;5053536;28;20573;-78
2022/04/18 13:21:29;;;;;;;2.55;1.00;;;;;;;;;;5053019;28;20024;-77
2022/04/18 13:23:59;;;;;;;3.72;1.42;;;;;;;;;;5053281;28;20382;-77
2022/04/18 13:26:26;;;;;;;1.95;1.38;;;;;;;;;;5053325;28;20021;-78
2022/04/18 13:28:51;;;;;;;1.40;1.00;;;;;;;;;;5051698;28;20036;-77
2022/04/18 13:31:17;;;;;;;2.45;1.30;;;;;;;;;;5052960;28;20021;-78
2022/04/18 13:33:43;;;;;;;2.05;1.30;;;;;;;;;;5054038;28;20017;-80
2022/04/18 13:38:55;;;;;;;2.67;1.40;;;;;;;;;;5054028;28;20028;-78
2022/04/18 13:41:21;;;;;;;1.73;1.10;;;;;;;;;;5053962;28;20029;-78
2022/04/18 13:43:46;;;;;;;3.67;1.40;;;;;;;;;;5053201;28;20021;-77
2022/04/18 13:46:11;;;;;;;2.03;1.35;;;;;;;;;;5053221;28;20092;-77
2022/04/18 13:48:37;;;;;;;1.63;1.15;;;;;;;;;;5052905;28;20029;-78
2022/04/18 13:51:02;;;;;;;2.75;1.20;;;;;;;;;;5053304;28;20025;-78
2022/04/18 13:53:27;;;;;;;1.80;1.20;;;;;;;;;;5057089;28;20031;-77
2022/04/18 13:55:53;;;;;;;1.27;1.03;;;;;;;;;;5056390;28;20025;-77
2022/04/18 13:58:18;;;;;;;2.42;1.23;;;;;;;;;;5055885;28;20319;-77
2022/04/18 14:00:43;;;;;;;2.05;1.10;;;;;;;;;;5056113;28;20021;-77
2022/04/18 14:03:09;;;;;;;1.30;1.00;;;;;;;;;;5055780;28;20090;-78
2022/04/18 14:05:38;;;;;;;1.73;1.27;;;;;;;;;;5055915;28;20258;-78
2022/04/18 14:08:04;;;;;;;1.48;1.05;;;;;;;;;;5055689;28;20063;-76
2022/04/18 14:10:29;;;;;;;2.47;1.27;;;;;;;;;;5055585;28;20056;-77
2022/04/18 14:12:55;;;;;;;2.50;1.08;;;;;;;;;;5055480;28;20125;-77
2022/04/18 14:20:49;;;;;;;2.15;1.30;;;;;;;;;;5055912;28;20032;-77
2022/04/18 14:23:14;;;;;;;1.88;1.15;;;;;;;;;;5055849;28;20021;-77
2022/04/18 14:25:40;;;;;;;2.63;1.30;;;;;;;;;;5055784;28;20029;-77
2022/04/18 14:28:06;;;;;;;4.15;1.10;;;;;;;;;;5055897;28;20104;-77
2022/04/18 14:30:31;;;;;;;2.20;1.17;;;;;;;;;;5055975;28;20112;-77
2022/04/18 14:32:56;;;;;;;1.85;1.05;;;;;;;;;;5056210;28;20028;-77
2022/04/18 14:35:23;;;;;;;2.78;1.15;;;;;;;;;;5055926;28;20426;-76
2022/04/18 14:37:48;;;;;;;2.75;1.23;;;;;;;;;;5055183;28;20028;-77
2022/04/18 14:40:14;;;;;;;3.15;1.30;;;;;;;;;;5055649;28;20021;-77
2022/04/18 14:42:39;;;;;;;1.38;1.00;;;;;;;;;;5055181;28;20075;-77
2022/04/18 14:45:06;;;;;;;1.70;1.27;;;;;;;;;;5056363;28;20029;-77
2022/04/18 14:47:32;;;;;;;2.90;1.27;;;;;;;;;;5055237;28;20078;-76
2022/04/18 14:49:58;;;;;;;1.33;1.00;;;;;;;;;;5055567;28;20420;-77
2022/04/18 14:52:23;;;;;;;2.90;1.17;;;;;;;;;;5054226;28;20528;-77
2022/04/18 14:54:50;;;;;;;3.87;1.23;;;;;;;;;;5056219;28;20055;-78
2022/04/18 14:57:16;;;;;;;2.92;1.25;;;;;;;;;;5055198;28;20281;-77
2022/04/18 14:59:41;;;;;;;2.38;1.15;;;;;;;;;;5054488;28;20036;-77
2022/04/18 15:02:07;;;;;;;1.45;1.10;;;;;;;;;;5052948;28;20023;-76
2022/04/18 15:04:33;;;;;;;1.25;0.90;;;;;;;;;;5055122;28;20025;-76
2022/04/18 15:06:58;;;;;;;1.23;1.10;;;;;;;;;;5055038;28;20023;-76
2022/04/18 15:09:23;;;;;;;1.50;1.00;;;;;;;;;;5054482;28;20025;-76
2022/04/18 15:11:49;;;;;;;2.53;1.10;;;;;;;;;;5053173;28;20278;-77
2022/04/18 15:14:15;;;;;;;1.85;1.00;;;;;;;;;;5053002;28;20033;-77
2022/04/18 15:16:41;;;;;;;1.77;1.05;;;;;;;;;;5054620;28;20040;-78